createdAt,value
2022-11-12T00:01:15.581Z,5.83
2022-11-12T00:04:00.705Z,6.57
2022-11-12T00:06:46.064Z,5.07
2022-11-12T00:09:31.377Z,3.33
2022-11-12T00:12:16.706Z,3.10
2022-11-12T00:15:01.843Z,2.93
2022-11-12T00:17:47.248Z,5.47
2022-11-12T00:20:32.540Z,3.10
2022-11-12T00:23:17.999Z,2.77
2022-11-12T00:26:03.191Z,5.00
2022-11-12T00:28:48.187Z,6.33
2022-11-12T00:31:34.652Z,3.07
2022-11-12T00:34:19.767Z,2.80
2022-11-12T00:37:04.994Z,3.37
2022-11-12T00:39:50.409Z,4.07
2022-11-12T00:42:35.703Z,2.40
2022-11-12T00:45:20.910Z,2.23
2022-11-12T00:48:06.159Z,2.17
2022-11-12T00:50:51.899Z,5.00
2022-11-12T00:53:37.032Z,1.87
2022-11-12T00:56:22.376Z,3.73
2022-11-12T00:59:07.321Z,3.10
2022-11-12T01:01:52.589Z,2.17
2022-11-12T01:04:38.076Z,3.70
2022-11-12T01:07:23.411Z,1.97
2022-11-12T01:10:09.295Z,3.07
2022-11-12T01:12:54.811Z,3.37
2022-11-12T01:15:43.099Z,2.13
2022-11-12T01:18:28.314Z,3.87
2022-11-12T01:21:14.921Z,2.90
2022-11-12T01:24:01.251Z,4.17
2022-11-12T01:26:47.615Z,3.83
2022-11-12T01:29:32.895Z,2.50
2022-11-12T01:32:18.037Z,2.30
2022-11-12T01:35:03.395Z,2.77
2022-11-12T01:37:48.761Z,3.03
2022-11-12T01:40:33.959Z,3.97
2022-11-12T01:43:19.037Z,2.93
2022-11-12T01:46:27.252Z,3.57
2022-11-12T01:49:14.706Z,2.07
2022-11-12T01:52:05.284Z,1.90
2022-11-12T01:54:52.471Z,1.63
2022-11-12T01:57:40.592Z,3.10
2022-11-12T02:00:25.930Z,4.30
2022-11-12T02:03:13.556Z,2.77
2022-11-12T02:06:01.134Z,4.33
2022-11-12T02:08:46.774Z,3.80
2022-11-12T02:11:31.943Z,2.70
2022-11-12T02:14:17.400Z,2.43
2022-11-12T02:17:02.345Z,5.10
2022-11-12T02:19:47.396Z,3.90
2022-11-12T02:22:32.606Z,4.20
2022-11-12T02:25:19.731Z,3.33
2022-11-12T02:28:06.581Z,2.63
2022-11-12T02:30:51.882Z,3.10
2022-11-12T02:33:43.045Z,2.67
2022-11-12T02:36:28.166Z,3.77
2022-11-12T02:39:13.217Z,2.40
2022-11-12T02:41:58.720Z,2.30
2022-11-12T02:44:44.263Z,2.87
2022-11-12T02:47:29.316Z,3.43
2022-11-12T02:50:15.201Z,2.47
2022-11-12T02:53:00.405Z,3.27
2022-11-12T02:55:45.753Z,3.37
2022-11-12T02:58:31.005Z,2.50
2022-11-12T03:01:16.062Z,2.80
2022-11-12T03:04:01.663Z,3.70
2022-11-12T03:06:46.946Z,3.80
2022-11-12T03:09:32.246Z,4.10
2022-11-12T03:12:17.623Z,5.10
2022-11-12T03:15:02.775Z,3.73
2022-11-12T03:17:48.264Z,3.50
2022-11-12T03:20:38.746Z,3.73
2022-11-12T03:23:24.019Z,3.77
2022-11-12T03:26:09.370Z,3.83
2022-11-12T03:28:54.317Z,4.30
2022-11-12T03:31:39.352Z,5.53
2022-11-12T03:34:24.200Z,6.20
2022-11-12T03:37:09.693Z,5.10
2022-11-12T03:39:54.983Z,5.03
2022-11-12T03:42:44.629Z,3.57
2022-11-12T03:45:29.993Z,6.43
2022-11-12T03:48:15.150Z,3.60
2022-11-12T03:51:00.367Z,4.27
2022-11-12T03:53:45.749Z,5.57
2022-11-12T03:56:30.849Z,5.07
2022-11-12T03:59:16.010Z,4.37
2022-11-12T04:02:01.229Z,3.63
2022-11-12T04:05:05.283Z,4.50
2022-11-12T04:08:14.885Z,8.43
2022-11-12T04:11:00.365Z,4.37
2022-11-12T04:13:48.255Z,3.87
2022-11-12T04:16:52.063Z,3.27
2022-11-12T04:19:55.857Z,3.63
2022-11-12T04:22:41.150Z,3.20
2022-11-12T04:25:44.785Z,3.43
2022-11-12T04:28:30.074Z,3.17
2022-11-12T04:31:15.566Z,2.80
2022-11-12T04:34:20.644Z,2.20
2022-11-12T04:37:06.041Z,3.10
2022-11-12T04:39:51.870Z,2.90
2022-11-12T04:42:55.473Z,4.20
2022-11-12T04:45:41.519Z,3.80
2022-11-12T04:48:27.418Z,4.27
2022-11-12T04:51:31.641Z,4.17
2022-11-12T04:54:16.794Z,2.77
2022-11-12T04:57:02.233Z,4.47
2022-11-12T04:59:47.458Z,3.33
2022-11-12T05:02:32.323Z,3.00
2022-11-12T05:05:17.235Z,4.57
2022-11-12T05:08:03.219Z,2.70
2022-11-12T05:10:48.272Z,5.07
2022-11-12T05:13:33.095Z,2.77
2022-11-12T05:16:18.126Z,3.83
2022-11-12T05:19:04.059Z,3.70
2022-11-12T05:22:17.421Z,3.23
2022-11-12T05:25:12.465Z,3.17
2022-11-12T05:27:57.500Z,3.10
2022-11-12T05:30:42.905Z,4.67
2022-11-12T05:33:28.088Z,3.23
2022-11-12T05:36:13.110Z,4.20
2022-11-12T05:38:58.527Z,4.00
2022-11-12T05:42:10.798Z,3.57
2022-11-12T05:44:48.579Z,4.70
2022-11-12T05:47:34.014Z,4.43
2022-11-12T05:50:19.212Z,3.80
2022-11-12T05:53:04.236Z,5.20
2022-11-12T05:55:49.163Z,4.67
2022-11-12T05:58:34.291Z,3.57
2022-11-12T06:01:19.730Z,3.40
2022-11-12T06:04:05.108Z,3.17
2022-11-12T06:06:50.540Z,3.90
2022-11-12T06:09:35.619Z,3.10
2022-11-12T06:12:20.796Z,2.73
2022-11-12T06:15:06.282Z,3.00
2022-11-12T06:17:51.188Z,5.40
2022-11-12T06:20:37.606Z,3.43
2022-11-12T06:23:22.425Z,3.93
2022-11-12T06:26:07.280Z,3.67
2022-11-12T06:28:52.732Z,2.60
2022-11-12T06:31:55.640Z,4.07
2022-11-12T06:34:40.932Z,2.93
2022-11-12T06:37:25.998Z,3.27
2022-11-12T06:40:11.252Z,5.20
2022-11-12T06:42:56.981Z,4.47
2022-11-12T06:45:42.234Z,5.17
2022-11-12T06:48:28.086Z,2.87
2022-11-12T06:51:17.924Z,3.40
2022-11-12T06:54:03.365Z,4.53
2022-11-12T06:56:48.384Z,4.43
2022-11-12T06:59:33.642Z,8.03
2022-11-12T07:02:18.792Z,9.17
2022-11-12T07:05:04.067Z,5.50
2022-11-12T07:07:49.363Z,5.33
2022-11-12T07:10:34.833Z,5.37
2022-11-12T07:13:19.789Z,5.47
2022-11-12T07:16:06.141Z,5.77
2022-11-12T07:18:50.986Z,5.47
2022-11-12T07:21:36.551Z,5.00
2022-11-12T07:24:22.750Z,4.23
2022-11-12T07:27:07.952Z,4.93
2022-11-12T07:29:53.066Z,4.73
2022-11-12T07:32:43.381Z,4.50
2022-11-12T07:35:29.512Z,5.50
2022-11-12T07:38:14.733Z,6.17
2022-11-12T07:41:03.924Z,6.00
2022-11-12T07:43:50.453Z,4.67
2022-11-12T07:46:35.952Z,3.63
2022-11-12T07:49:20.958Z,2.77
2022-11-12T07:52:06.306Z,4.67
2022-11-12T07:54:51.494Z,3.97
2022-11-12T07:57:54.395Z,3.90
2022-11-12T08:00:39.819Z,3.60
2022-11-12T08:03:25.610Z,3.13
2022-11-12T08:06:10.949Z,3.87
2022-11-12T08:08:56.835Z,3.33
2022-11-12T08:11:42.331Z,2.30
2022-11-12T08:14:27.556Z,3.47
2022-11-12T08:17:12.931Z,4.20
2022-11-12T08:19:58.192Z,4.03
2022-11-12T08:22:48.019Z,3.20
2022-11-12T08:25:34.668Z,3.37
2022-11-12T08:28:19.891Z,4.00
2022-11-12T08:31:05.989Z,3.67
2022-11-12T08:33:51.202Z,6.27
2022-11-12T08:36:36.667Z,7.67
2022-11-12T08:39:39.641Z,8.33
2022-11-12T08:42:24.779Z,6.53
2022-11-12T08:45:10.367Z,4.83
2022-11-12T08:48:02.526Z,5.67
2022-11-12T08:50:47.639Z,7.43
2022-11-12T08:53:32.987Z,5.10
2022-11-12T08:56:19.022Z,6.37
2022-11-12T08:59:07.382Z,8.33
2022-11-12T09:01:53.386Z,6.90
2022-11-12T09:04:39.102Z,7.03
2022-11-12T09:10:30.018Z,6.33
2022-11-12T09:13:17.272Z,6.97
2022-11-12T09:16:03.692Z,5.47
2022-11-12T09:18:48.808Z,10.07
2022-11-12T09:21:34.189Z,5.77
2022-11-12T09:24:19.526Z,7.53
2022-11-12T09:27:04.874Z,9.50
2022-11-12T09:29:50.068Z,6.77
2022-11-12T09:32:35.579Z,2.83
2022-11-12T09:35:23.435Z,2.93
2022-11-12T09:38:08.736Z,2.80
2022-11-12T09:41:01.181Z,3.97
2022-11-12T09:43:54.022Z,6.97
2022-11-12T09:46:45.191Z,3.47
2022-11-12T09:49:36.154Z,5.30
2022-11-12T09:52:23.323Z,8.60
2022-11-12T09:55:21.100Z,5.83
2022-11-12T09:58:17.995Z,4.07
2022-11-12T10:01:07.291Z,4.70
2022-11-12T10:04:10.917Z,5.07
2022-11-12T10:06:58.868Z,7.93
2022-11-12T10:09:52.508Z,8.93
2022-11-12T10:12:37.444Z,8.67
2022-11-12T10:15:55.029Z,11.70
2022-11-12T10:18:46.328Z,7.20
2022-11-12T10:21:40.264Z,6.87
2022-11-12T10:24:26.541Z,7.63
2022-11-12T10:27:13.539Z,10.70
2022-11-12T10:30:13.460Z,8.97
2022-11-12T10:32:58.526Z,12.00
2022-11-12T10:35:43.684Z,9.67
2022-11-12T10:38:29.419Z,7.27
2022-11-12T10:41:22.566Z,10.30
2022-11-12T10:44:13.285Z,6.83
2022-11-12T10:47:18.968Z,9.53
2022-11-12T10:50:19.815Z,11.67
2022-11-12T10:53:06.742Z,7.47
2022-11-12T10:56:02.125Z,7.90
2022-11-12T10:59:07.351Z,12.87
2022-11-12T11:01:59.000Z,8.77
2022-11-12T11:04:44.797Z,12.30
2022-11-12T11:07:29.732Z,11.13
2022-11-12T11:10:26.123Z,11.87
2022-11-12T11:13:27.036Z,10.93
2022-11-12T11:16:22.353Z,11.87
2022-11-12T11:19:09.219Z,12.47
2022-11-12T11:21:58.528Z,10.57
2022-11-12T11:25:03.928Z,11.43
2022-11-12T11:28:01.096Z,8.60
2022-11-12T11:31:06.333Z,9.57
2022-11-12T11:34:12.969Z,10.90
2022-11-12T11:37:06.637Z,12.53
2022-11-12T11:40:17.806Z,13.40
2022-11-12T11:43:05.683Z,9.10
2022-11-12T11:45:50.745Z,11.90
2022-11-12T11:49:10.915Z,13.37
2022-11-12T11:52:00.594Z,11.77
2022-11-12T11:54:48.686Z,9.13
2022-11-12T11:57:42.446Z,8.63
2022-11-12T12:00:35.432Z,5.97
2022-11-12T12:03:20.758Z,8.67
2022-11-12T12:06:09.626Z,9.53
2022-11-12T12:09:07.501Z,10.67
2022-11-12T12:11:58.825Z,9.00
2022-11-12T12:15:06.627Z,9.37
2022-11-12T12:18:05.160Z,8.37
2022-11-12T12:21:06.500Z,8.20
2022-11-12T12:24:03.088Z,10.87
2022-11-12T12:26:52.508Z,10.50
2022-11-12T12:29:40.769Z,9.03
2022-11-12T12:32:28.785Z,8.80
2022-11-12T12:35:22.726Z,12.87
2022-11-12T12:38:10.539Z,9.80
2022-11-12T12:41:14.059Z,15.17
2022-11-12T12:44:03.465Z,9.50
2022-11-12T12:46:58.551Z,14.60
2022-11-12T12:49:44.197Z,6.93
2022-11-12T12:52:29.692Z,8.07
2022-11-12T12:55:33.732Z,7.17
2022-11-12T12:58:25.259Z,12.13
2022-11-12T13:01:11.067Z,11.00
2022-11-12T13:04:00.239Z,5.70
2022-11-12T13:06:46.508Z,8.70
2022-11-12T13:09:33.331Z,6.77
2022-11-12T13:12:18.528Z,7.77
2022-11-12T13:15:16.062Z,8.17
2022-11-12T13:18:01.096Z,7.53
2022-11-12T13:21:06.164Z,8.33
2022-11-12T13:24:09.854Z,6.43
2022-11-12T13:26:56.778Z,8.93
2022-11-12T13:30:02.484Z,6.87
2022-11-12T13:32:47.462Z,11.47
2022-11-12T13:35:34.250Z,5.63
2022-11-12T13:38:20.189Z,6.67
2022-11-12T13:41:43.651Z,10.93
2022-11-12T13:44:29.218Z,8.53
2022-11-12T13:47:17.162Z,6.80
2022-11-12T13:50:02.356Z,5.07
2022-11-12T13:52:48.389Z,6.30
2022-11-12T13:55:36.537Z,7.07
2022-11-12T13:58:27.978Z,7.13
2022-11-12T14:01:13.821Z,6.27
2022-11-12T14:03:59.040Z,5.57
2022-11-12T14:06:45.531Z,6.60
2022-11-12T14:09:30.650Z,5.73
2022-11-12T14:12:31.434Z,5.97
2022-11-12T14:15:35.297Z,6.17
2022-11-12T14:18:29.648Z,7.20
2022-11-12T14:21:18.617Z,6.67
2022-11-12T14:24:04.550Z,5.60
2022-11-12T14:26:49.914Z,4.73
2022-11-12T14:29:38.799Z,7.77
2022-11-12T14:32:26.706Z,5.63
2022-11-12T14:35:20.931Z,7.53
2022-11-12T14:38:11.917Z,4.80
2022-11-12T14:41:09.105Z,6.37
2022-11-12T14:44:11.340Z,8.20
2022-11-12T14:46:58.843Z,9.93
2022-11-12T14:49:46.248Z,7.30
2022-11-12T14:52:32.982Z,11.37
2022-11-12T14:55:22.663Z,7.77
2022-11-12T14:58:12.173Z,7.57
2022-11-12T15:00:57.674Z,7.87
2022-11-12T15:03:42.919Z,4.47
2022-11-12T15:06:31.667Z,5.83
2022-11-12T15:09:31.295Z,6.33
2022-11-12T15:12:20.847Z,6.63
2022-11-12T15:15:08.004Z,5.30
2022-11-12T15:17:56.762Z,4.27
2022-11-12T15:20:43.115Z,7.53
2022-11-12T15:23:28.509Z,6.63
2022-11-12T15:26:14.608Z,7.53
2022-11-12T15:29:00.827Z,6.47
2022-11-12T15:32:00.706Z,8.03
2022-11-12T15:34:48.164Z,7.13
2022-11-12T15:37:36.585Z,9.10
2022-11-12T15:40:22.084Z,4.80
2022-11-12T15:43:18.260Z,5.50
2022-11-12T15:46:03.422Z,6.57
2022-11-12T15:48:54.528Z,8.20
2022-11-12T15:51:41.087Z,11.33
2022-11-12T15:54:26.406Z,5.27
2022-11-12T15:57:16.216Z,7.70
2022-11-12T16:00:08.412Z,11.33
2022-11-12T16:02:59.377Z,6.27
2022-11-12T16:05:44.863Z,7.73
2022-11-12T16:08:30.154Z,9.40
2022-11-12T16:11:33.745Z,10.80
2022-11-12T16:14:24.491Z,11.90
2022-11-12T16:17:13.030Z,7.67
2022-11-12T16:19:58.077Z,8.13
2022-11-12T16:22:43.309Z,7.90
2022-11-12T16:25:29.847Z,6.23
2022-11-12T16:28:16.139Z,7.07
2022-11-12T16:31:01.111Z,8.57
2022-11-12T16:33:46.494Z,7.83
2022-11-12T16:36:31.436Z,9.93
2022-11-12T16:39:16.826Z,9.50
2022-11-12T16:42:02.037Z,7.60
2022-11-12T16:44:46.989Z,5.13
2022-11-12T16:47:32.049Z,6.80
2022-11-12T16:50:18.404Z,9.13
2022-11-12T16:53:03.390Z,9.63
2022-11-12T16:55:48.673Z,7.30
2022-11-12T16:58:35.548Z,7.67
2022-11-12T17:01:23.601Z,7.07
2022-11-12T17:04:09.147Z,8.40
2022-11-12T17:06:54.531Z,6.37
2022-11-12T17:09:39.748Z,8.23
2022-11-12T17:12:25.132Z,9.93
2022-11-12T17:15:10.423Z,8.37
2022-11-12T17:17:55.753Z,8.67
2022-11-12T17:20:41.118Z,8.50
2022-11-12T17:23:26.643Z,6.80
2022-11-12T17:26:21.178Z,6.10
2022-11-12T17:29:08.209Z,8.97
2022-11-12T17:31:53.734Z,6.00
2022-11-12T17:34:38.780Z,6.67
2022-11-12T17:37:24.075Z,8.07
2022-11-12T17:40:10.569Z,7.53
2022-11-12T17:42:55.715Z,6.57
2022-11-12T17:45:48.707Z,9.27
2022-11-12T17:48:34.992Z,9.53
2022-11-12T17:51:27.024Z,7.50
2022-11-12T17:54:12.268Z,7.57
2022-11-12T17:56:57.261Z,5.20
2022-11-12T17:59:43.544Z,8.80
2022-11-12T18:02:28.770Z,6.73
2022-11-12T18:05:30.710Z,7.13
2022-11-12T18:08:16.179Z,7.40
2022-11-12T18:11:01.941Z,8.03
2022-11-12T18:13:47.000Z,9.67
2022-11-12T18:16:32.058Z,6.83
2022-11-12T18:19:17.478Z,7.07
2022-11-12T18:22:02.452Z,6.87
2022-11-12T18:24:50.748Z,8.47
2022-11-12T18:27:36.063Z,9.83
2022-11-12T18:30:21.025Z,7.50
2022-11-12T18:33:06.365Z,7.57
2022-11-12T18:36:11.773Z,8.97
2022-11-12T18:38:56.915Z,6.67
2022-11-12T18:41:42.391Z,8.83
2022-11-12T18:44:27.646Z,9.23
2022-11-12T18:47:13.105Z,7.90
2022-11-12T18:49:58.282Z,9.83
2022-11-12T18:52:43.643Z,11.07
2022-11-12T18:55:28.809Z,11.13
2022-11-12T18:58:14.189Z,8.13
2022-11-12T19:01:06.219Z,9.93
2022-11-12T19:03:55.054Z,10.53
2022-11-12T19:06:40.092Z,8.93
2022-11-12T19:09:25.598Z,8.87
2022-11-12T19:12:10.853Z,10.63
2022-11-12T19:14:56.049Z,10.03
2022-11-12T19:17:41.438Z,7.93
2022-11-12T19:20:27.434Z,9.50
2022-11-12T19:23:12.477Z,11.90
2022-11-12T19:26:02.277Z,9.83
2022-11-12T19:28:47.439Z,9.50
2022-11-12T19:31:34.581Z,11.00
2022-11-12T19:34:19.733Z,10.63
2022-11-12T19:37:27.130Z,12.60
2022-11-12T19:40:11.241Z,9.67
2022-11-12T19:42:57.046Z,9.60
2022-11-12T19:45:42.396Z,13.60
2022-11-12T19:48:28.221Z,12.03
2022-11-12T19:51:14.019Z,9.73
2022-11-12T19:53:58.981Z,10.47
2022-11-12T19:56:44.263Z,9.97
2022-11-12T19:59:40.207Z,12.53
2022-11-12T20:02:25.908Z,10.03
2022-11-12T20:05:10.972Z,9.87
2022-11-12T20:07:56.323Z,10.83
2022-11-12T20:10:41.885Z,11.60
2022-11-12T20:13:27.168Z,9.33
2022-11-12T20:16:13.892Z,11.63
2022-11-12T20:18:59.498Z,9.70
2022-11-12T20:21:45.267Z,11.53
2022-11-12T20:24:30.304Z,11.07
2022-11-12T20:27:15.922Z,10.57
2022-11-12T20:30:01.452Z,10.67
2022-11-12T20:32:46.840Z,11.33
2022-11-12T20:35:34.500Z,13.87
2022-11-12T20:38:20.393Z,10.30
2022-11-12T20:41:06.718Z,12.13
2022-11-12T20:43:54.019Z,11.00
2022-11-12T20:46:39.162Z,13.40
2022-11-12T20:49:24.539Z,9.27
2022-11-12T20:52:09.917Z,11.00
2022-11-12T20:54:55.425Z,14.37
2022-11-12T20:57:41.409Z,16.40
2022-11-12T21:00:26.820Z,11.57
2022-11-12T21:03:11.740Z,16.40
2022-11-12T21:05:57.962Z,10.87
2022-11-12T21:08:43.950Z,12.50
2022-11-12T21:11:29.649Z,15.53
2022-11-12T21:14:15.257Z,12.53
2022-11-12T21:17:00.213Z,11.90
2022-11-12T21:19:45.567Z,14.33
2022-11-12T21:22:31.840Z,16.30
2022-11-12T21:25:17.033Z,12.97
2022-11-12T21:28:02.035Z,13.77
2022-11-12T21:30:47.399Z,15.37
2022-11-12T21:33:32.989Z,15.80
2022-11-12T21:36:18.510Z,15.97
2022-11-12T21:39:04.711Z,16.27
2022-11-12T21:41:49.804Z,15.27
2022-11-12T21:44:34.961Z,14.50
2022-11-12T21:47:19.838Z,13.60
2022-11-12T21:50:05.369Z,12.53
2022-11-12T21:52:50.281Z,13.80
2022-11-12T21:55:35.135Z,14.73
2022-11-12T21:58:20.386Z,13.87
2022-11-12T22:01:25.957Z,14.97
2022-11-12T22:04:15.516Z,15.80
2022-11-12T22:07:03.255Z,16.07
2022-11-12T22:09:50.296Z,17.37
2022-11-12T22:12:39.810Z,16.83
2022-11-12T22:15:26.255Z,15.90
2022-11-12T22:18:11.161Z,14.63
2022-11-12T22:21:00.053Z,17.87
2022-11-12T22:23:45.286Z,13.07
2022-11-12T22:26:39.093Z,13.43
2022-11-12T22:29:24.136Z,15.13
2022-11-12T22:32:09.377Z,13.47
2022-11-12T22:34:54.595Z,14.73
2022-11-12T22:37:39.885Z,15.27
2022-11-12T22:40:25.240Z,15.97
2022-11-12T22:43:10.452Z,14.27
2022-11-12T22:45:55.826Z,14.27
2022-11-12T22:48:41.242Z,15.13
2022-11-12T22:51:27.634Z,16.70
2022-11-12T22:54:15.710Z,14.40
2022-11-12T22:57:00.685Z,13.47
2022-11-12T22:59:46.035Z,15.47
2022-11-12T23:02:31.078Z,16.63
2022-11-12T23:05:16.449Z,13.97
2022-11-12T23:08:01.637Z,13.50
2022-11-12T23:10:46.924Z,15.70
2022-11-12T23:13:32.946Z,12.90
2022-11-12T23:16:20.248Z,13.47
2022-11-12T23:19:05.548Z,23.27
2022-11-12T23:21:50.886Z,14.03
2022-11-12T23:24:36.093Z,19.87
2022-11-12T23:27:21.389Z,16.47
2022-11-12T23:30:06.716Z,15.07
2022-11-12T23:32:51.777Z,14.83
2022-11-12T23:35:37.114Z,13.73
2022-11-12T23:38:22.433Z,13.23
2022-11-12T23:41:08.327Z,15.70
2022-11-12T23:43:54.136Z,12.50
2022-11-12T23:46:39.035Z,15.17
2022-11-12T23:49:24.310Z,15.47
2022-11-12T23:52:09.557Z,12.87
2022-11-12T23:54:58.860Z,14.07
2022-11-12T23:57:44.108Z,16.03
